sensor_id;sensor_type;location;lat;lon;timestamp;P1;durP1;ratioP1;P2;durP2;ratioP2
25153;SDS011;47555;51.038;6.280;2022-12-11T00:01:58;56.40;;;16.65;;
25153;SDS011;47555;51.038;6.280;2022-12-11T00:04:23;61.03;;;17.15;;
25153;SDS011;47555;51.038;6.280;2022-12-11T00:06:49;56.63;;;18.33;;
25153;SDS011;47555;51.038;6.280;2022-12-11T00:09:15;55.45;;;18.73;;
25153;SDS011;47555;51.038;6.280;2022-12-11T00:11:42;58.45;;;18.20;;
25153;SDS011;47555;51.038;6.280;2022-12-11T00:14:08;61.25;;;18.92;;
25153;SDS011;47555;51.038;6.280;2022-12-11T00:16:33;56.22;;;17.77;;
25153;SDS011;47555;51.038;6.280;2022-12-11T00:18:59;54.25;;;17.35;;
25153;SDS011;47555;51.038;6.280;2022-12-11T00:21:24;54.53;;;17.67;;
25153;SDS011;47555;51.038;6.280;2022-12-11T00:23:50;53.22;;;16.95;;
25153;SDS011;47555;51.038;6.280;2022-12-11T00:26:16;48.08;;;15.10;;
25153;SDS011;47555;51.038;6.280;2022-12-11T00:28:42;53.47;;;16.10;;
25153;SDS011;47555;51.038;6.280;2022-12-11T00:31:10;50.95;;;17.17;;
25153;SDS011;47555;51.038;6.280;2022-12-11T00:33:39;54.88;;;16.55;;
25153;SDS011;47555;51.038;6.280;2022-12-11T00:36:09;55.83;;;18.05;;
25153;SDS011;47555;51.038;6.280;2022-12-11T00:38:46;46.38;;;14.68;;
25153;SDS011;47555;51.038;6.280;2022-12-11T00:41:12;49.97;;;16.38;;
25153;SDS011;47555;51.038;6.280;2022-12-11T00:43:38;46.90;;;16.35;;
25153;SDS011;47555;51.038;6.280;2022-12-11T00:46:04;51.80;;;17.77;;
25153;SDS011;47555;51.038;6.280;2022-12-11T00:48:29;54.25;;;18.13;;
25153;SDS011;47555;51.038;6.280;2022-12-11T00:50:55;47.08;;;17.00;;
25153;SDS011;47555;51.038;6.280;2022-12-11T00:53:20;61.30;;;19.92;;
25153;SDS011;47555;51.038;6.280;2022-12-11T00:55:46;57.97;;;17.85;;
25153;SDS011;47555;51.038;6.280;2022-12-11T00:58:12;50.40;;;17.20;;
25153;SDS011;47555;51.038;6.280;2022-12-11T01:00:38;50.45;;;17.58;;
25153;SDS011;47555;51.038;6.280;2022-12-11T01:03:04;56.40;;;17.10;;
25153;SDS011;47555;51.038;6.280;2022-12-11T01:05:30;42.53;;;15.52;;
25153;SDS011;47555;51.038;6.280;2022-12-11T01:07:56;46.20;;;16.58;;
25153;SDS011;47555;51.038;6.280;2022-12-11T01:10:22;52.03;;;17.98;;
25153;SDS011;47555;51.038;6.280;2022-12-11T01:12:48;43.05;;;15.45;;
25153;SDS011;47555;51.038;6.280;2022-12-11T01:15:17;45.80;;;17.33;;
25153;SDS011;47555;51.038;6.280;2022-12-11T01:17:44;45.58;;;15.98;;
25153;SDS011;47555;51.038;6.280;2022-12-11T01:20:10;39.90;;;14.00;;
25153;SDS011;47555;51.038;6.280;2022-12-11T01:22:36;43.63;;;16.00;;
25153;SDS011;47555;51.038;6.280;2022-12-11T01:25:01;41.88;;;15.50;;
25153;SDS011;47555;51.038;6.280;2022-12-11T01:27:27;43.70;;;15.98;;
25153;SDS011;47555;51.038;6.280;2022-12-11T01:29:53;43.28;;;14.93;;
25153;SDS011;47555;51.038;6.280;2022-12-11T01:32:18;46.35;;;16.02;;
25153;SDS011;47555;51.038;6.280;2022-12-11T01:34:44;44.90;;;13.90;;
25153;SDS011;47555;51.038;6.280;2022-12-11T01:37:09;46.03;;;14.68;;
25153;SDS011;47555;51.038;6.280;2022-12-11T01:39:35;45.13;;;16.08;;
25153;SDS011;47555;51.038;6.280;2022-12-11T01:42:02;47.05;;;15.32;;
25153;SDS011;47555;51.038;6.280;2022-12-11T01:46:53;46.08;;;15.63;;
25153;SDS011;47555;51.038;6.280;2022-12-11T01:49:19;39.15;;;14.10;;
25153;SDS011;47555;51.038;6.280;2022-12-11T01:51:53;35.08;;;14.18;;
25153;SDS011;47555;51.038;6.280;2022-12-11T01:54:26;37.33;;;14.45;;
25153;SDS011;47555;51.038;6.280;2022-12-11T01:56:57;38.13;;;13.50;;
25153;SDS011;47555;51.038;6.280;2022-12-11T01:59:27;40.60;;;14.90;;
25153;SDS011;47555;51.038;6.280;2022-12-11T02:01:58;41.55;;;15.13;;
25153;SDS011;47555;51.038;6.280;2022-12-11T02:04:34;39.17;;;14.68;;
25153;SDS011;47555;51.038;6.280;2022-12-11T02:07:01;43.25;;;14.52;;
25153;SDS011;47555;51.038;6.280;2022-12-11T02:09:28;41.42;;;11.45;;
25153;SDS011;47555;51.038;6.280;2022-12-11T02:12:07;37.70;;;13.35;;
25153;SDS011;47555;51.038;6.280;2022-12-11T02:14:58;42.97;;;15.55;;
25153;SDS011;47555;51.038;6.280;2022-12-11T02:20:15;47.03;;;14.18;;
25153;SDS011;47555;51.038;6.280;2022-12-11T02:23:26;40.97;;;14.27;;
25153;SDS011;47555;51.038;6.280;2022-12-11T02:26:19;41.60;;;14.73;;
25153;SDS011;47555;51.038;6.280;2022-12-11T02:29:02;45.60;;;14.27;;
25153;SDS011;47555;51.038;6.280;2022-12-11T02:34:27;43.85;;;14.43;;
25153;SDS011;47555;51.038;6.280;2022-12-11T02:37:02;41.88;;;13.55;;
25153;SDS011;47555;51.038;6.280;2022-12-11T02:39:33;37.83;;;13.57;;
25153;SDS011;47555;51.038;6.280;2022-12-11T02:42:02;41.70;;;14.18;;
25153;SDS011;47555;51.038;6.280;2022-12-11T02:44:29;36.90;;;14.15;;
25153;SDS011;47555;51.038;6.280;2022-12-11T02:46:59;36.30;;;12.70;;
25153;SDS011;47555;51.038;6.280;2022-12-11T02:49:26;42.22;;;14.90;;
25153;SDS011;47555;51.038;6.280;2022-12-11T02:51:52;34.70;;;12.60;;
25153;SDS011;47555;51.038;6.280;2022-12-11T02:54:21;39.75;;;14.43;;
25153;SDS011;47555;51.038;6.280;2022-12-11T02:57:05;31.95;;;13.05;;
25153;SDS011;47555;51.038;6.280;2022-12-11T02:59:36;31.90;;;12.98;;
25153;SDS011;47555;51.038;6.280;2022-12-11T03:02:04;29.52;;;11.00;;
25153;SDS011;47555;51.038;6.280;2022-12-11T03:04:30;37.53;;;11.75;;
25153;SDS011;47555;51.038;6.280;2022-12-11T03:06:58;35.35;;;12.35;;
25153;SDS011;47555;51.038;6.280;2022-12-11T03:09:35;33.83;;;13.18;;
25153;SDS011;47555;51.038;6.280;2022-12-11T03:12:06;33.72;;;12.27;;
25153;SDS011;47555;51.038;6.280;2022-12-11T03:14:34;31.75;;;12.40;;
25153;SDS011;47555;51.038;6.280;2022-12-11T03:17:05;33.55;;;11.60;;
25153;SDS011;47555;51.038;6.280;2022-12-11T03:19:39;33.88;;;13.60;;
25153;SDS011;47555;51.038;6.280;2022-12-11T03:22:12;37.50;;;12.63;;
25153;SDS011;47555;51.038;6.280;2022-12-11T03:24:45;29.80;;;12.20;;
25153;SDS011;47555;51.038;6.280;2022-12-11T03:27:25;35.30;;;12.43;;
25153;SDS011;47555;51.038;6.280;2022-12-11T03:29:58;33.90;;;13.35;;
25153;SDS011;47555;51.038;6.280;2022-12-11T03:32:28;32.28;;;12.15;;
25153;SDS011;47555;51.038;6.280;2022-12-11T03:35:13;33.60;;;12.68;;
25153;SDS011;47555;51.038;6.280;2022-12-11T03:37:47;33.53;;;11.25;;
25153;SDS011;47555;51.038;6.280;2022-12-11T03:40:15;33.85;;;10.57;;
25153;SDS011;47555;51.038;6.280;2022-12-11T03:42:43;31.75;;;12.88;;
25153;SDS011;47555;51.038;6.280;2022-12-11T03:45:11;37.08;;;12.43;;
25153;SDS011;47555;51.038;6.280;2022-12-11T03:47:38;32.10;;;12.07;;
25153;SDS011;47555;51.038;6.280;2022-12-11T03:50:07;32.10;;;12.35;;
25153;SDS011;47555;51.038;6.280;2022-12-11T03:52:36;34.92;;;13.90;;
25153;SDS011;47555;51.038;6.280;2022-12-11T03:55:05;30.52;;;10.98;;
25153;SDS011;47555;51.038;6.280;2022-12-11T03:57:32;35.10;;;12.23;;
25153;SDS011;47555;51.038;6.280;2022-12-11T04:00:01;34.85;;;12.15;;
25153;SDS011;47555;51.038;6.280;2022-12-11T04:02:31;31.33;;;13.50;;
25153;SDS011;47555;51.038;6.280;2022-12-11T04:04:56;38.95;;;12.55;;
25153;SDS011;47555;51.038;6.280;2022-12-11T04:07:22;36.85;;;12.63;;
25153;SDS011;47555;51.038;6.280;2022-12-11T04:09:47;40.65;;;13.77;;
25153;SDS011;47555;51.038;6.280;2022-12-11T04:12:13;37.85;;;14.10;;
25153;SDS011;47555;51.038;6.280;2022-12-11T04:14:38;34.70;;;13.93;;
25153;SDS011;47555;51.038;6.280;2022-12-11T04:17:23;40.85;;;13.43;;
25153;SDS011;47555;51.038;6.280;2022-12-11T04:20:08;41.28;;;14.77;;
25153;SDS011;47555;51.038;6.280;2022-12-11T04:22:53;36.95;;;13.45;;
25153;SDS011;47555;51.038;6.280;2022-12-11T04:25:37;36.00;;;13.85;;
25153;SDS011;47555;51.038;6.280;2022-12-11T04:28:02;36.35;;;12.02;;
25153;SDS011;47555;51.038;6.280;2022-12-11T04:30:28;42.40;;;12.57;;
25153;SDS011;47555;51.038;6.280;2022-12-11T04:32:53;35.33;;;12.02;;
25153;SDS011;47555;51.038;6.280;2022-12-11T04:35:19;34.85;;;14.02;;
25153;SDS011;47555;51.038;6.280;2022-12-11T04:37:46;39.15;;;14.50;;
25153;SDS011;47555;51.038;6.280;2022-12-11T04:40:12;35.10;;;12.35;;
25153;SDS011;47555;51.038;6.280;2022-12-11T04:42:40;31.48;;;12.18;;
25153;SDS011;47555;51.038;6.280;2022-12-11T04:45:06;36.20;;;12.48;;
25153;SDS011;47555;51.038;6.280;2022-12-11T04:47:33;38.97;;;14.18;;
25153;SDS011;47555;51.038;6.280;2022-12-11T04:50:00;40.03;;;14.25;;
25153;SDS011;47555;51.038;6.280;2022-12-11T04:52:25;35.30;;;11.02;;
25153;SDS011;47555;51.038;6.280;2022-12-11T04:54:51;29.85;;;13.13;;
25153;SDS011;47555;51.038;6.280;2022-12-11T04:57:16;31.60;;;12.30;;
25153;SDS011;47555;51.038;6.280;2022-12-11T04:59:42;26.42;;;10.45;;
25153;SDS011;47555;51.038;6.280;2022-12-11T05:02:07;33.78;;;12.30;;
25153;SDS011;47555;51.038;6.280;2022-12-11T05:04:33;33.08;;;12.25;;
25153;SDS011;47555;51.038;6.280;2022-12-11T05:07:00;27.85;;;11.15;;
25153;SDS011;47555;51.038;6.280;2022-12-11T05:09:25;24.40;;;10.13;;
25153;SDS011;47555;51.038;6.280;2022-12-11T05:11:52;30.60;;;11.13;;
25153;SDS011;47555;51.038;6.280;2022-12-11T05:14:18;34.63;;;12.10;;
25153;SDS011;47555;51.038;6.280;2022-12-11T05:16:44;28.45;;;11.02;;
25153;SDS011;47555;51.038;6.280;2022-12-11T05:19:12;26.27;;;10.23;;
25153;SDS011;47555;51.038;6.280;2022-12-11T05:21:38;29.02;;;10.98;;
25153;SDS011;47555;51.038;6.280;2022-12-11T05:24:03;30.00;;;11.50;;
25153;SDS011;47555;51.038;6.280;2022-12-11T05:26:29;28.13;;;10.30;;
25153;SDS011;47555;51.038;6.280;2022-12-11T05:28:55;25.13;;;10.60;;
25153;SDS011;47555;51.038;6.280;2022-12-11T05:31:22;28.35;;;11.35;;
25153;SDS011;47555;51.038;6.280;2022-12-11T05:33:49;27.70;;;10.73;;
25153;SDS011;47555;51.038;6.280;2022-12-11T05:36:17;27.90;;;10.27;;
25153;SDS011;47555;51.038;6.280;2022-12-11T05:41:14;24.95;;;10.13;;
25153;SDS011;47555;51.038;6.280;2022-12-11T05:43:42;25.58;;;10.80;;
25153;SDS011;47555;51.038;6.280;2022-12-11T05:46:12;24.83;;;10.30;;
25153;SDS011;47555;51.038;6.280;2022-12-11T05:48:42;20.70;;;9.25;;
25153;SDS011;47555;51.038;6.280;2022-12-11T05:51:08;22.77;;;8.95;;
25153;SDS011;47555;51.038;6.280;2022-12-11T05:53:35;26.88;;;9.77;;
25153;SDS011;47555;51.038;6.280;2022-12-11T05:56:11;26.73;;;10.18;;
25153;SDS011;47555;51.038;6.280;2022-12-11T05:58:39;28.27;;;10.68;;
25153;SDS011;47555;51.038;6.280;2022-12-11T06:01:09;29.95;;;10.70;;
25153;SDS011;47555;51.038;6.280;2022-12-11T06:06:03;22.98;;;10.68;;
25153;SDS011;47555;51.038;6.280;2022-12-11T06:08:30;19.17;;;8.73;;
25153;SDS011;47555;51.038;6.280;2022-12-11T06:10:56;24.00;;;10.00;;
25153;SDS011;47555;51.038;6.280;2022-12-11T06:13:22;27.63;;;9.93;;
25153;SDS011;47555;51.038;6.280;2022-12-11T06:15:48;27.75;;;10.32;;
25153;SDS011;47555;51.038;6.280;2022-12-11T06:18:14;19.15;;;9.90;;
25153;SDS011;47555;51.038;6.280;2022-12-11T06:20:39;24.45;;;9.27;;
25153;SDS011;47555;51.038;6.280;2022-12-11T06:23:05;22.98;;;9.57;;
25153;SDS011;47555;51.038;6.280;2022-12-11T06:25:30;22.73;;;9.93;;
25153;SDS011;47555;51.038;6.280;2022-12-11T06:27:56;21.75;;;9.98;;
25153;SDS011;47555;51.038;6.280;2022-12-11T06:30:22;20.52;;;7.95;;
25153;SDS011;47555;51.038;6.280;2022-12-11T06:32:48;23.67;;;9.48;;
25153;SDS011;47555;51.038;6.280;2022-12-11T06:35:13;17.73;;;8.48;;
25153;SDS011;47555;51.038;6.280;2022-12-11T06:37:39;21.05;;;7.93;;
25153;SDS011;47555;51.038;6.280;2022-12-11T06:40:05;20.05;;;8.45;;
25153;SDS011;47555;51.038;6.280;2022-12-11T06:42:32;22.30;;;9.43;;
25153;SDS011;47555;51.038;6.280;2022-12-11T06:44:57;20.80;;;7.80;;
25153;SDS011;47555;51.038;6.280;2022-12-11T06:47:26;17.55;;;8.13;;
25153;SDS011;47555;51.038;6.280;2022-12-11T06:49:56;13.95;;;7.40;;
25153;SDS011;47555;51.038;6.280;2022-12-11T06:52:22;19.40;;;8.10;;
25153;SDS011;47555;51.038;6.280;2022-12-11T06:54:49;20.77;;;8.52;;
25153;SDS011;47555;51.038;6.280;2022-12-11T06:57:15;19.17;;;8.88;;
25153;SDS011;47555;51.038;6.280;2022-12-11T06:59:41;17.95;;;7.70;;
25153;SDS011;47555;51.038;6.280;2022-12-11T07:02:11;16.95;;;8.23;;
25153;SDS011;47555;51.038;6.280;2022-12-11T07:04:38;14.15;;;6.57;;
25153;SDS011;47555;51.038;6.280;2022-12-11T07:07:04;17.60;;;7.88;;
25153;SDS011;47555;51.038;6.280;2022-12-11T07:09:30;16.77;;;6.85;;
25153;SDS011;47555;51.038;6.280;2022-12-11T07:11:56;15.10;;;7.20;;
25153;SDS011;47555;51.038;6.280;2022-12-11T07:14:22;15.93;;;6.43;;
25153;SDS011;47555;51.038;6.280;2022-12-11T07:16:48;12.90;;;6.78;;
25153;SDS011;47555;51.038;6.280;2022-12-11T07:19:13;18.17;;;7.72;;
25153;SDS011;47555;51.038;6.280;2022-12-11T07:21:39;16.23;;;6.85;;
25153;SDS011;47555;51.038;6.280;2022-12-11T07:24:05;16.55;;;6.47;;
25153;SDS011;47555;51.038;6.280;2022-12-11T07:26:31;17.20;;;7.35;;
25153;SDS011;47555;51.038;6.280;2022-12-11T07:28:56;17.80;;;7.15;;
25153;SDS011;47555;51.038;6.280;2022-12-11T07:31:23;17.65;;;7.47;;
25153;SDS011;47555;51.038;6.280;2022-12-11T07:33:56;13.93;;;6.75;;
25153;SDS011;47555;51.038;6.280;2022-12-11T07:36:24;19.25;;;8.57;;
25153;SDS011;47555;51.038;6.280;2022-12-11T07:38:50;21.70;;;8.55;;
25153;SDS011;47555;51.038;6.280;2022-12-11T07:41:17;17.63;;;8.02;;
25153;SDS011;47555;51.038;6.280;2022-12-11T07:43:43;18.08;;;8.45;;
25153;SDS011;47555;51.038;6.280;2022-12-11T07:46:10;15.98;;;8.77;;
25153;SDS011;47555;51.038;6.280;2022-12-11T07:48:37;19.05;;;7.60;;
25153;SDS011;47555;51.038;6.280;2022-12-11T07:53:36;16.42;;;9.45;;
25153;SDS011;47555;51.038;6.280;2022-12-11T07:56:02;20.27;;;9.90;;
25153;SDS011;47555;51.038;6.280;2022-12-11T07:58:28;20.38;;;10.15;;
25153;SDS011;47555;51.038;6.280;2022-12-11T08:00:53;23.77;;;10.00;;
25153;SDS011;47555;51.038;6.280;2022-12-11T08:03:19;20.25;;;8.85;;
25153;SDS011;47555;51.038;6.280;2022-12-11T08:05:48;22.90;;;9.05;;
25153;SDS011;47555;51.038;6.280;2022-12-11T08:08:14;19.00;;;8.75;;
25153;SDS011;47555;51.038;6.280;2022-12-11T08:10:39;21.40;;;9.15;;
25153;SDS011;47555;51.038;6.280;2022-12-11T08:13:05;21.05;;;9.43;;
25153;SDS011;47555;51.038;6.280;2022-12-11T08:15:31;19.55;;;9.05;;
25153;SDS011;47555;51.038;6.280;2022-12-11T08:17:56;24.08;;;10.18;;
25153;SDS011;47555;51.038;6.280;2022-12-11T08:20:21;20.88;;;9.75;;
25153;SDS011;47555;51.038;6.280;2022-12-11T08:22:47;19.58;;;9.32;;
25153;SDS011;47555;51.038;6.280;2022-12-11T08:25:12;22.20;;;9.23;;
25153;SDS011;47555;51.038;6.280;2022-12-11T08:27:38;21.23;;;9.05;;
25153;SDS011;47555;51.038;6.280;2022-12-11T08:30:04;20.95;;;8.75;;
25153;SDS011;47555;51.038;6.280;2022-12-11T08:32:30;24.08;;;9.93;;
25153;SDS011;47555;51.038;6.280;2022-12-11T08:34:55;18.55;;;8.98;;
25153;SDS011;47555;51.038;6.280;2022-12-11T08:37:21;19.00;;;8.75;;
25153;SDS011;47555;51.038;6.280;2022-12-11T08:39:46;23.38;;;10.18;;
25153;SDS011;47555;51.038;6.280;2022-12-11T08:42:12;18.95;;;8.98;;
25153;SDS011;47555;51.038;6.280;2022-12-11T08:44:37;22.30;;;9.82;;
25153;SDS011;47555;51.038;6.280;2022-12-11T08:47:03;21.05;;;9.07;;
25153;SDS011;47555;51.038;6.280;2022-12-11T08:49:28;24.67;;;9.65;;
25153;SDS011;47555;51.038;6.280;2022-12-11T08:51:54;18.38;;;9.05;;
25153;SDS011;47555;51.038;6.280;2022-12-11T08:54:19;18.80;;;8.63;;
25153;SDS011;47555;51.038;6.280;2022-12-11T08:56:45;19.30;;;9.32;;
25153;SDS011;47555;51.038;6.280;2022-12-11T08:59:10;16.45;;;7.72;;
25153;SDS011;47555;51.038;6.280;2022-12-11T09:01:36;21.55;;;9.45;;
25153;SDS011;47555;51.038;6.280;2022-12-11T09:04:01;19.70;;;9.65;;
25153;SDS011;47555;51.038;6.280;2022-12-11T09:06:27;22.55;;;10.68;;
25153;SDS011;47555;51.038;6.280;2022-12-11T09:08:57;19.92;;;9.18;;
25153;SDS011;47555;51.038;6.280;2022-12-11T09:11:25;21.88;;;8.95;;
25153;SDS011;47555;51.038;6.280;2022-12-11T09:13:52;26.35;;;9.25;;
25153;SDS011;47555;51.038;6.280;2022-12-11T09:16:19;24.45;;;9.38;;
25153;SDS011;47555;51.038;6.280;2022-12-11T09:18:46;23.55;;;9.73;;
25153;SDS011;47555;51.038;6.280;2022-12-11T09:21:14;22.45;;;9.00;;
25153;SDS011;47555;51.038;6.280;2022-12-11T09:23:41;26.42;;;10.32;;
25153;SDS011;47555;51.038;6.280;2022-12-11T09:26:08;20.83;;;9.07;;
25153;SDS011;47555;51.038;6.280;2022-12-11T09:28:35;20.83;;;9.70;;
25153;SDS011;47555;51.038;6.280;2022-12-11T09:31:06;21.48;;;9.50;;
25153;SDS011;47555;51.038;6.280;2022-12-11T09:33:33;19.90;;;9.32;;
25153;SDS011;47555;51.038;6.280;2022-12-11T09:36:02;19.85;;;8.23;;
25153;SDS011;47555;51.038;6.280;2022-12-11T09:38:28;19.20;;;9.30;;
25153;SDS011;47555;51.038;6.280;2022-12-11T09:40:55;19.10;;;9.52;;
25153;SDS011;47555;51.038;6.280;2022-12-11T09:43:27;17.85;;;8.60;;
25153;SDS011;47555;51.038;6.280;2022-12-11T09:45:55;24.95;;;10.20;;
25153;SDS011;47555;51.038;6.280;2022-12-11T09:48:23;20.10;;;8.70;;
25153;SDS011;47555;51.038;6.280;2022-12-11T09:50:50;19.23;;;10.13;;
25153;SDS011;47555;51.038;6.280;2022-12-11T09:55:58;25.20;;;10.55;;
25153;SDS011;47555;51.038;6.280;2022-12-11T10:01:21;19.63;;;8.55;;
25153;SDS011;47555;51.038;6.280;2022-12-11T10:09:16;17.70;;;8.10;;
25153;SDS011;47555;51.038;6.280;2022-12-11T10:17:36;19.65;;;9.30;;
25153;SDS011;47555;51.038;6.280;2022-12-11T10:20:25;16.00;;;7.20;;
25153;SDS011;47555;51.038;6.280;2022-12-11T10:22:52;18.67;;;8.48;;
25153;SDS011;47555;51.038;6.280;2022-12-11T10:25:31;19.23;;;8.13;;
25153;SDS011;47555;51.038;6.280;2022-12-11T10:28:14;16.88;;;7.60;;
25153;SDS011;47555;51.038;6.280;2022-12-11T10:30:54;15.63;;;7.30;;
25153;SDS011;47555;51.038;6.280;2022-12-11T10:33:26;17.70;;;8.77;;
25153;SDS011;47555;51.038;6.280;2022-12-11T10:35:56;19.08;;;9.00;;
25153;SDS011;47555;51.038;6.280;2022-12-11T10:38:23;19.75;;;9.32;;
25153;SDS011;47555;51.038;6.280;2022-12-11T10:40:54;17.67;;;8.45;;
25153;SDS011;47555;51.038;6.280;2022-12-11T10:43:38;18.63;;;9.02;;
25153;SDS011;47555;51.038;6.280;2022-12-11T10:48:55;16.40;;;8.18;;
25153;SDS011;47555;51.038;6.280;2022-12-11T10:51:32;19.58;;;8.57;;
25153;SDS011;47555;51.038;6.280;2022-12-11T10:54:07;15.52;;;6.97;;
25153;SDS011;47555;51.038;6.280;2022-12-11T10:56:49;15.43;;;7.05;;
25153;SDS011;47555;51.038;6.280;2022-12-11T10:59:20;13.95;;;6.45;;
25153;SDS011;47555;51.038;6.280;2022-12-11T11:01:49;15.00;;;6.63;;
25153;SDS011;47555;51.038;6.280;2022-12-11T11:04:18;14.55;;;6.60;;
25153;SDS011;47555;51.038;6.280;2022-12-11T11:06:47;12.32;;;6.43;;
25153;SDS011;47555;51.038;6.280;2022-12-11T11:09:33;13.05;;;7.18;;
25153;SDS011;47555;51.038;6.280;2022-12-11T11:12:00;13.15;;;6.80;;
25153;SDS011;47555;51.038;6.280;2022-12-11T11:14:26;15.48;;;7.43;;
25153;SDS011;47555;51.038;6.280;2022-12-11T11:16:54;15.98;;;7.18;;
25153;SDS011;47555;51.038;6.280;2022-12-11T11:21:58;11.23;;;6.28;;
25153;SDS011;47555;51.038;6.280;2022-12-11T11:24:50;14.18;;;6.90;;
25153;SDS011;47555;51.038;6.280;2022-12-11T11:27:28;13.68;;;6.75;;
25153;SDS011;47555;51.038;6.280;2022-12-11T11:30:00;13.18;;;6.82;;
25153;SDS011;47555;51.038;6.280;2022-12-11T11:32:32;14.95;;;7.45;;
25153;SDS011;47555;51.038;6.280;2022-12-11T11:37:37;13.57;;;6.70;;
25153;SDS011;47555;51.038;6.280;2022-12-11T11:40:07;14.10;;;7.50;;
25153;SDS011;47555;51.038;6.280;2022-12-11T11:43:16;18.42;;;7.93;;
25153;SDS011;47555;51.038;6.280;2022-12-11T11:48:54;11.57;;;6.47;;
25153;SDS011;47555;51.038;6.280;2022-12-11T12:03:19;13.55;;;7.47;;
25153;SDS011;47555;51.038;6.280;2022-12-11T12:05:54;17.42;;;7.90;;
25153;SDS011;47555;51.038;6.280;2022-12-11T12:13:54;14.20;;;6.88;;
25153;SDS011;47555;51.038;6.280;2022-12-11T12:19:29;17.90;;;7.25;;
25153;SDS011;47555;51.038;6.280;2022-12-11T12:25:24;14.45;;;6.85;;
25153;SDS011;47555;51.038;6.280;2022-12-11T12:31:12;17.63;;;6.90;;
25153;SDS011;47555;51.038;6.280;2022-12-11T12:36:40;14.88;;;7.50;;
25153;SDS011;47555;51.038;6.280;2022-12-11T12:39:21;15.55;;;7.50;;
25153;SDS011;47555;51.038;6.280;2022-12-11T12:42:11;12.38;;;6.60;;
25153;SDS011;47555;51.038;6.280;2022-12-11T12:44:59;14.88;;;7.50;;
25153;SDS011;47555;51.038;6.280;2022-12-11T12:47:31;14.77;;;7.75;;
25153;SDS011;47555;51.038;6.280;2022-12-11T12:49:59;15.57;;;7.40;;
25153;SDS011;47555;51.038;6.280;2022-12-11T12:54:56;15.77;;;7.80;;
25153;SDS011;47555;51.038;6.280;2022-12-11T13:02:54;15.70;;;7.60;;
25153;SDS011;47555;51.038;6.280;2022-12-11T13:05:22;15.02;;;7.20;;
25153;SDS011;47555;51.038;6.280;2022-12-11T13:10:59;17.45;;;8.02;;
25153;SDS011;47555;51.038;6.280;2022-12-11T13:13:41;21.13;;;8.65;;
25153;SDS011;47555;51.038;6.280;2022-12-11T13:18:40;17.75;;;7.60;;
25153;SDS011;47555;51.038;6.280;2022-12-11T13:24:44;17.58;;;8.13;;
25153;SDS011;47555;51.038;6.280;2022-12-11T13:26:44;13.88;;;6.97;;
25153;SDS011;47555;51.038;6.280;2022-12-11T13:29:30;18.00;;;7.80;;
25153;SDS011;47555;51.038;6.280;2022-12-11T13:32:02;17.52;;;7.70;;
25153;SDS011;47555;51.038;6.280;2022-12-11T13:34:55;15.90;;;7.80;;
25153;SDS011;47555;51.038;6.280;2022-12-11T13:37:24;16.67;;;7.15;;
25153;SDS011;47555;51.038;6.280;2022-12-11T13:39:51;17.63;;;7.72;;
25153;SDS011;47555;51.038;6.280;2022-12-11T13:42:30;17.55;;;8.13;;
25153;SDS011;47555;51.038;6.280;2022-12-11T13:45:20;17.10;;;7.75;;
25153;SDS011;47555;51.038;6.280;2022-12-11T13:47:51;14.27;;;7.53;;
25153;SDS011;47555;51.038;6.280;2022-12-11T13:50:18;19.67;;;9.13;;
25153;SDS011;47555;51.038;6.280;2022-12-11T13:52:54;15.02;;;7.80;;
25153;SDS011;47555;51.038;6.280;2022-12-11T13:55:24;15.00;;;8.32;;
25153;SDS011;47555;51.038;6.280;2022-12-11T13:57:52;15.18;;;7.95;;
25153;SDS011;47555;51.038;6.280;2022-12-11T14:00:22;19.48;;;8.68;;
25153;SDS011;47555;51.038;6.280;2022-12-11T14:02:58;15.98;;;8.05;;
25153;SDS011;47555;51.038;6.280;2022-12-11T14:05:28;18.70;;;8.75;;
25153;SDS011;47555;51.038;6.280;2022-12-11T14:07:55;19.20;;;7.65;;
25153;SDS011;47555;51.038;6.280;2022-12-11T14:10:26;19.23;;;8.13;;
25153;SDS011;47555;51.038;6.280;2022-12-11T14:13:04;15.15;;;7.75;;
25153;SDS011;47555;51.038;6.280;2022-12-11T14:15:32;17.95;;;8.10;;
25153;SDS011;47555;51.038;6.280;2022-12-11T14:18:00;15.75;;;7.78;;
25153;SDS011;47555;51.038;6.280;2022-12-11T14:20:26;16.98;;;8.27;;
25153;SDS011;47555;51.038;6.280;2022-12-11T14:25:52;17.40;;;7.40;;
25153;SDS011;47555;51.038;6.280;2022-12-11T14:28:18;16.65;;;7.80;;
25153;SDS011;47555;51.038;6.280;2022-12-11T14:30:46;18.45;;;8.00;;
25153;SDS011;47555;51.038;6.280;2022-12-11T14:33:13;16.75;;;8.45;;
25153;SDS011;47555;51.038;6.280;2022-12-11T14:35:41;17.17;;;7.47;;
25153;SDS011;47555;51.038;6.280;2022-12-11T14:38:14;17.35;;;8.20;;
25153;SDS011;47555;51.038;6.280;2022-12-11T14:40:44;17.70;;;8.60;;
25153;SDS011;47555;51.038;6.280;2022-12-11T14:43:14;17.13;;;8.13;;
25153;SDS011;47555;51.038;6.280;2022-12-11T14:45:47;20.67;;;8.90;;
25153;SDS011;47555;51.038;6.280;2022-12-11T14:48:22;16.65;;;8.13;;
25153;SDS011;47555;51.038;6.280;2022-12-11T14:50:53;18.25;;;8.93;;
25153;SDS011;47555;51.038;6.280;2022-12-11T14:53:27;15.15;;;7.72;;
25153;SDS011;47555;51.038;6.280;2022-12-11T14:55:58;23.50;;;12.27;;
25153;SDS011;47555;51.038;6.280;2022-12-11T14:58:28;25.92;;;13.35;;
25153;SDS011;47555;51.038;6.280;2022-12-11T15:00:59;18.38;;;11.05;;
25153;SDS011;47555;51.038;6.280;2022-12-11T15:03:31;20.27;;;10.85;;
25153;SDS011;47555;51.038;6.280;2022-12-11T15:06:03;17.33;;;7.78;;
25153;SDS011;47555;51.038;6.280;2022-12-11T15:08:49;17.85;;;9.40;;
25153;SDS011;47555;51.038;6.280;2022-12-11T15:11:15;18.10;;;9.02;;
25153;SDS011;47555;51.038;6.280;2022-12-11T15:13:52;18.85;;;8.80;;
25153;SDS011;47555;51.038;6.280;2022-12-11T15:16:32;17.58;;;9.55;;
25153;SDS011;47555;51.038;6.280;2022-12-11T15:19:02;23.55;;;10.15;;
25153;SDS011;47555;51.038;6.280;2022-12-11T15:21:29;18.85;;;9.77;;
25153;SDS011;47555;51.038;6.280;2022-12-11T15:23:56;21.15;;;9.38;;
25153;SDS011;47555;51.038;6.280;2022-12-11T15:26:33;46.53;;;16.63;;
25153;SDS011;47555;51.038;6.280;2022-12-11T15:32:00;23.30;;;11.20;;
25153;SDS011;47555;51.038;6.280;2022-12-11T15:34:34;18.50;;;9.38;;
25153;SDS011;47555;51.038;6.280;2022-12-11T15:39:41;21.98;;;10.27;;
25153;SDS011;47555;51.038;6.280;2022-12-11T15:42:08;24.77;;;11.50;;
25153;SDS011;47555;51.038;6.280;2022-12-11T15:44:37;22.13;;;9.63;;
25153;SDS011;47555;51.038;6.280;2022-12-11T15:47:14;19.60;;;9.80;;
25153;SDS011;47555;51.038;6.280;2022-12-11T15:49:41;25.30;;;10.48;;
25153;SDS011;47555;51.038;6.280;2022-12-11T15:52:07;24.17;;;10.52;;
25153;SDS011;47555;51.038;6.280;2022-12-11T15:54:32;17.33;;;9.68;;
25153;SDS011;47555;51.038;6.280;2022-12-11T15:56:58;20.85;;;9.52;;
25153;SDS011;47555;51.038;6.280;2022-12-11T15:59:27;23.15;;;11.90;;
25153;SDS011;47555;51.038;6.280;2022-12-11T16:01:53;25.98;;;10.93;;
25153;SDS011;47555;51.038;6.280;2022-12-11T16:04:18;25.00;;;11.50;;
25153;SDS011;47555;51.038;6.280;2022-12-11T16:06:43;23.25;;;11.00;;
25153;SDS011;47555;51.038;6.280;2022-12-11T16:09:10;22.35;;;11.05;;
25153;SDS011;47555;51.038;6.280;2022-12-11T16:11:36;22.45;;;11.10;;
25153;SDS011;47555;51.038;6.280;2022-12-11T16:14:02;24.13;;;10.93;;
25153;SDS011;47555;51.038;6.280;2022-12-11T16:16:28;21.70;;;10.35;;
25153;SDS011;47555;51.038;6.280;2022-12-11T16:18:54;19.88;;;9.00;;
25153;SDS011;47555;51.038;6.280;2022-12-11T16:21:20;24.67;;;11.20;;